sensor_id;sensor_type;location;lat;lon;timestamp;temperature;humidity
36458;DHT22;22480;50.546;12.292;2024-01-25T00:01:46;6.30;99.90
36458;DHT22;22480;50.546;12.292;2024-01-25T00:04:11;6.40;99.90
36458;DHT22;22480;50.546;12.292;2024-01-25T00:06:37;6.30;99.90
36458;DHT22;22480;50.546;12.292;2024-01-25T00:09:03;6.30;99.90
36458;DHT22;22480;50.546;12.292;2024-01-25T00:11:29;6.20;99.90
36458;DHT22;22480;50.546;12.292;2024-01-25T00:13:57;6.30;99.90
36458;DHT22;22480;50.546;12.292;2024-01-25T00:16:23;6.20;99.90
36458;DHT22;22480;50.546;12.292;2024-01-25T00:18:49;6.40;99.90
36458;DHT22;22480;50.546;12.292;2024-01-25T00:21:14;6.50;99.90
36458;DHT22;22480;50.546;12.292;2024-01-25T00:23:40;6.50;99.90
36458;DHT22;22480;50.546;12.292;2024-01-25T00:26:06;6.60;99.90
36458;DHT22;22480;50.546;12.292;2024-01-25T00:28:32;6.60;99.90
36458;DHT22;22480;50.546;12.292;2024-01-25T00:30:59;6.70;99.90
36458;DHT22;22480;50.546;12.292;2024-01-25T00:33:25;6.70;99.90
36458;DHT22;22480;50.546;12.292;2024-01-25T00:35:51;6.60;99.90
36458;DHT22;22480;50.546;12.292;2024-01-25T00:38:17;6.60;99.90
36458;DHT22;22480;50.546;12.292;2024-01-25T00:40:43;6.50;99.90
36458;DHT22;22480;50.546;12.292;2024-01-25T00:43:09;6.50;99.90
36458;DHT22;22480;50.546;12.292;2024-01-25T00:45:35;6.50;99.90
36458;DHT22;22480;50.546;12.292;2024-01-25T00:48:01;6.60;99.90
36458;DHT22;22480;50.546;12.292;2024-01-25T00:50:27;6.60;99.90
36458;DHT22;22480;50.546;12.292;2024-01-25T00:52:53;6.60;99.90
36458;DHT22;22480;50.546;12.292;2024-01-25T00:55:19;6.60;99.90
36458;DHT22;22480;50.546;12.292;2024-01-25T00:57:45;6.60;99.90
36458;DHT22;22480;50.546;12.292;2024-01-25T01:00:12;6.50;99.90
36458;DHT22;22480;50.546;12.292;2024-01-25T01:02:45;6.50;99.90
36458;DHT22;22480;50.546;12.292;2024-01-25T01:05:11;6.50;99.90
36458;DHT22;22480;50.546;12.292;2024-01-25T01:07:38;6.50;99.90
36458;DHT22;22480;50.546;12.292;2024-01-25T01:10:07;6.50;99.90
36458;DHT22;22480;50.546;12.292;2024-01-25T01:12:33;6.50;99.90
36458;DHT22;22480;50.546;12.292;2024-01-25T01:14:59;6.50;99.90
36458;DHT22;22480;50.546;12.292;2024-01-25T01:17:25;6.40;99.90
36458;DHT22;22480;50.546;12.292;2024-01-25T01:19:51;6.40;99.90
36458;DHT22;22480;50.546;12.292;2024-01-25T01:22:17;6.40;99.90
36458;DHT22;22480;50.546;12.292;2024-01-25T01:24:43;6.50;99.90
36458;DHT22;22480;50.546;12.292;2024-01-25T01:27:08;6.50;99.90
36458;DHT22;22480;50.546;12.292;2024-01-25T01:29:34;6.50;99.90
36458;DHT22;22480;50.546;12.292;2024-01-25T01:32:00;6.40;99.90
36458;DHT22;22480;50.546;12.292;2024-01-25T01:34:25;6.40;99.90
36458;DHT22;22480;50.546;12.292;2024-01-25T01:36:51;6.40;99.90
36458;DHT22;22480;50.546;12.292;2024-01-25T01:39:17;6.40;99.90
36458;DHT22;22480;50.546;12.292;2024-01-25T01:41:47;6.40;99.90
36458;DHT22;22480;50.546;12.292;2024-01-25T01:44:13;6.40;99.90
36458;DHT22;22480;50.546;12.292;2024-01-25T01:46:39;6.40;99.90
36458;DHT22;22480;50.546;12.292;2024-01-25T01:49:07;6.40;99.90
36458;DHT22;22480;50.546;12.292;2024-01-25T01:51:35;6.40;99.90
36458;DHT22;22480;50.546;12.292;2024-01-25T01:54:02;6.40;99.90
36458;DHT22;22480;50.546;12.292;2024-01-25T01:56:29;6.40;99.90
36458;DHT22;22480;50.546;12.292;2024-01-25T01:59:00;6.50;99.90
36458;DHT22;22480;50.546;12.292;2024-01-25T02:01:26;6.40;99.90
36458;DHT22;22480;50.546;12.292;2024-01-25T02:03:52;6.40;99.90
36458;DHT22;22480;50.546;12.292;2024-01-25T02:06:22;6.50;99.90
36458;DHT22;22480;50.546;12.292;2024-01-25T02:08:49;6.40;99.90
36458;DHT22;22480;50.546;12.292;2024-01-25T02:11:17;6.40;99.90
36458;DHT22;22480;50.546;12.292;2024-01-25T02:13:43;6.40;99.90
36458;DHT22;22480;50.546;12.292;2024-01-25T02:16:09;6.40;99.90
36458;DHT22;22480;50.546;12.292;2024-01-25T02:18:35;6.40;99.90
36458;DHT22;22480;50.546;12.292;2024-01-25T02:21:01;6.50;99.90
36458;DHT22;22480;50.546;12.292;2024-01-25T02:23:27;6.40;99.90
36458;DHT22;22480;50.546;12.292;2024-01-25T02:25:53;6.50;99.90
36458;DHT22;22480;50.546;12.292;2024-01-25T02:28:18;6.40;99.90
36458;DHT22;22480;50.546;12.292;2024-01-25T02:30:44;6.40;99.90
36458;DHT22;22480;50.546;12.292;2024-01-25T02:33:10;6.50;99.90
36458;DHT22;22480;50.546;12.292;2024-01-25T02:35:37;6.40;99.90
36458;DHT22;22480;50.546;12.292;2024-01-25T02:38:03;6.40;99.90
36458;DHT22;22480;50.546;12.292;2024-01-25T02:40:28;6.40;99.90
36458;DHT22;22480;50.546;12.292;2024-01-25T02:42:54;6.40;99.90
36458;DHT22;22480;50.546;12.292;2024-01-25T02:45:22;6.40;99.90
36458;DHT22;22480;50.546;12.292;2024-01-25T02:47:48;6.40;99.90
36458;DHT22;22480;50.546;12.292;2024-01-25T02:50:13;6.40;99.90
36458;DHT22;22480;50.546;12.292;2024-01-25T02:52:39;6.40;99.90
36458;DHT22;22480;50.546;12.292;2024-01-25T02:55:05;6.30;99.90
36458;DHT22;22480;50.546;12.292;2024-01-25T02:57:31;6.30;99.90
36458;DHT22;22480;50.546;12.292;2024-01-25T02:59:57;6.20;99.90
36458;DHT22;22480;50.546;12.292;2024-01-25T03:02:22;6.20;99.90
36458;DHT22;22480;50.546;12.292;2024-01-25T03:04:48;6.20;99.90
36458;DHT22;22480;50.546;12.292;2024-01-25T03:07:14;6.20;99.90
36458;DHT22;22480;50.546;12.292;2024-01-25T03:09:40;6.10;99.90
36458;DHT22;22480;50.546;12.292;2024-01-25T03:12:06;6.20;99.90
36458;DHT22;22480;50.546;12.292;2024-01-25T03:14:31;6.20;99.90
36458;DHT22;22480;50.546;12.292;2024-01-25T03:16:57;6.20;99.90
36458;DHT22;22480;50.546;12.292;2024-01-25T03:19:25;6.20;99.90
36458;DHT22;22480;50.546;12.292;2024-01-25T03:21:51;6.10;99.90
36458;DHT22;22480;50.546;12.292;2024-01-25T03:24:17;6.20;99.90
36458;DHT22;22480;50.546;12.292;2024-01-25T03:26:42;6.10;99.90
36458;DHT22;22480;50.546;12.292;2024-01-25T03:29:08;6.20;99.90
36458;DHT22;22480;50.546;12.292;2024-01-25T03:31:34;6.20;99.90
36458;DHT22;22480;50.546;12.292;2024-01-25T03:34:01;6.20;99.90
36458;DHT22;22480;50.546;12.292;2024-01-25T03:36:27;6.10;99.90
36458;DHT22;22480;50.546;12.292;2024-01-25T03:38:53;6.20;99.90
36458;DHT22;22480;50.546;12.292;2024-01-25T03:41:19;6.10;99.90
36458;DHT22;22480;50.546;12.292;2024-01-25T03:43:45;6.10;99.90
36458;DHT22;22480;50.546;12.292;2024-01-25T03:46:11;6.00;99.90
36458;DHT22;22480;50.546;12.292;2024-01-25T03:48:37;6.00;99.90
36458;DHT22;22480;50.546;12.292;2024-01-25T03:51:03;6.00;99.90
36458;DHT22;22480;50.546;12.292;2024-01-25T03:53:29;6.00;99.90
36458;DHT22;22480;50.546;12.292;2024-01-25T03:55:55;6.00;99.90
36458;DHT22;22480;50.546;12.292;2024-01-25T03:58:21;6.10;99.90
36458;DHT22;22480;50.546;12.292;2024-01-25T04:00:47;6.10;99.90
36458;DHT22;22480;50.546;12.292;2024-01-25T04:03:13;6.10;99.90
36458;DHT22;22480;50.546;12.292;2024-01-25T04:05:39;6.00;99.90
36458;DHT22;22480;50.546;12.292;2024-01-25T04:08:07;6.10;99.90
36458;DHT22;22480;50.546;12.292;2024-01-25T04:10:33;6.20;99.90
36458;DHT22;22480;50.546;12.292;2024-01-25T04:12:59;6.20;99.90
36458;DHT22;22480;50.546;12.292;2024-01-25T04:15:32;6.10;99.90
36458;DHT22;22480;50.546;12.292;2024-01-25T04:17:58;6.10;99.90
36458;DHT22;22480;50.546;12.292;2024-01-25T04:20:24;6.10;99.90
36458;DHT22;22480;50.546;12.292;2024-01-25T04:22:50;6.10;99.90
36458;DHT22;22480;50.546;12.292;2024-01-25T04:25:15;6.10;99.90
36458;DHT22;22480;50.546;12.292;2024-01-25T04:27:41;6.10;99.90
36458;DHT22;22480;50.546;12.292;2024-01-25T04:30:08;6.10;99.90
36458;DHT22;22480;50.546;12.292;2024-01-25T04:32:34;6.10;99.90
36458;DHT22;22480;50.546;12.292;2024-01-25T04:35:00;6.20;99.90
36458;DHT22;22480;50.546;12.292;2024-01-25T04:37:26;6.10;99.90
36458;DHT22;22480;50.546;12.292;2024-01-25T04:39:52;6.10;99.90
36458;DHT22;22480;50.546;12.292;2024-01-25T04:42:17;6.10;99.90
36458;DHT22;22480;50.546;12.292;2024-01-25T04:44:43;6.00;99.90
36458;DHT22;22480;50.546;12.292;2024-01-25T04:47:09;6.00;99.90
36458;DHT22;22480;50.546;12.292;2024-01-25T04:49:35;6.10;99.90
36458;DHT22;22480;50.546;12.292;2024-01-25T04:52:01;6.00;99.90
36458;DHT22;22480;50.546;12.292;2024-01-25T04:54:27;6.00;99.90
36458;DHT22;22480;50.546;12.292;2024-01-25T04:56:53;6.00;99.90
36458;DHT22;22480;50.546;12.292;2024-01-25T04:59:20;6.00;99.90
36458;DHT22;22480;50.546;12.292;2024-01-25T05:01:45;5.90;99.90
36458;DHT22;22480;50.546;12.292;2024-01-25T05:04:11;5.90;99.90
36458;DHT22;22480;50.546;12.292;2024-01-25T05:06:37;5.90;99.90
36458;DHT22;22480;50.546;12.292;2024-01-25T05:09:02;6.00;99.90
36458;DHT22;22480;50.546;12.292;2024-01-25T05:11:28;6.00;99.90
36458;DHT22;22480;50.546;12.292;2024-01-25T05:13:54;6.00;99.90
36458;DHT22;22480;50.546;12.292;2024-01-25T05:16:20;6.00;99.90
36458;DHT22;22480;50.546;12.292;2024-01-25T05:18:45;6.00;99.90
36458;DHT22;22480;50.546;12.292;2024-01-25T05:21:11;5.90;99.90
36458;DHT22;22480;50.546;12.292;2024-01-25T05:23:37;6.00;99.90
36458;DHT22;22480;50.546;12.292;2024-01-25T05:26:03;6.00;99.90
36458;DHT22;22480;50.546;12.292;2024-01-25T05:28:28;6.00;99.90
36458;DHT22;22480;50.546;12.292;2024-01-25T05:30:54;6.00;99.90
36458;DHT22;22480;50.546;12.292;2024-01-25T05:33:20;6.00;99.90
36458;DHT22;22480;50.546;12.292;2024-01-25T05:35:45;5.90;99.90
36458;DHT22;22480;50.546;12.292;2024-01-25T05:38:11;5.90;99.90
36458;DHT22;22480;50.546;12.292;2024-01-25T05:40:37;5.90;99.90
36458;DHT22;22480;50.546;12.292;2024-01-25T05:43:02;5.90;99.90
36458;DHT22;22480;50.546;12.292;2024-01-25T05:45:28;5.90;99.90
36458;DHT22;22480;50.546;12.292;2024-01-25T05:47:54;5.80;99.90
36458;DHT22;22480;50.546;12.292;2024-01-25T05:50:20;5.80;99.90
36458;DHT22;22480;50.546;12.292;2024-01-25T05:52:45;5.80;99.90
36458;DHT22;22480;50.546;12.292;2024-01-25T05:55:11;5.90;99.90
36458;DHT22;22480;50.546;12.292;2024-01-25T05:57:39;5.90;99.90
36458;DHT22;22480;50.546;12.292;2024-01-25T06:00:05;5.90;99.90
36458;DHT22;22480;50.546;12.292;2024-01-25T06:02:33;5.90;99.90
36458;DHT22;22480;50.546;12.292;2024-01-25T06:04:59;5.90;99.90
36458;DHT22;22480;50.546;12.292;2024-01-25T06:07:26;5.80;99.90
36458;DHT22;22480;50.546;12.292;2024-01-25T06:09:52;5.80;99.90
36458;DHT22;22480;50.546;12.292;2024-01-25T06:12:18;5.90;99.90
36458;DHT22;22480;50.546;12.292;2024-01-25T06:14:44;5.80;99.90
36458;DHT22;22480;50.546;12.292;2024-01-25T06:17:09;5.80;99.90
36458;DHT22;22480;50.546;12.292;2024-01-25T06:19:35;5.70;99.90
36458;DHT22;22480;50.546;12.292;2024-01-25T06:22:01;5.70;99.90
36458;DHT22;22480;50.546;12.292;2024-01-25T06:24:28;5.80;99.90
36458;DHT22;22480;50.546;12.292;2024-01-25T06:26:54;5.70;99.90
36458;DHT22;22480;50.546;12.292;2024-01-25T06:29:20;5.70;99.90
36458;DHT22;22480;50.546;12.292;2024-01-25T06:31:45;5.70;99.90
36458;DHT22;22480;50.546;12.292;2024-01-25T06:34:12;5.70;99.90
36458;DHT22;22480;50.546;12.292;2024-01-25T06:36:38;5.70;99.90
36458;DHT22;22480;50.546;12.292;2024-01-25T06:39:04;5.70;99.90
36458;DHT22;22480;50.546;12.292;2024-01-25T06:41:30;5.70;99.90
36458;DHT22;22480;50.546;12.292;2024-01-25T06:43:56;5.70;99.90
36458;DHT22;22480;50.546;12.292;2024-01-25T06:46:21;5.70;99.90
36458;DHT22;22480;50.546;12.292;2024-01-25T06:48:47;5.70;99.90
36458;DHT22;22480;50.546;12.292;2024-01-25T06:51:13;5.70;99.90
36458;DHT22;22480;50.546;12.292;2024-01-25T06:53:39;5.70;99.90
36458;DHT22;22480;50.546;12.292;2024-01-25T06:56:05;5.60;99.90
36458;DHT22;22480;50.546;12.292;2024-01-25T06:58:32;5.60;99.90
36458;DHT22;22480;50.546;12.292;2024-01-25T07:00:58;5.70;99.90
36458;DHT22;22480;50.546;12.292;2024-01-25T07:03:23;5.60;99.90
36458;DHT22;22480;50.546;12.292;2024-01-25T07:05:49;5.60;99.90
36458;DHT22;22480;50.546;12.292;2024-01-25T07:08:15;5.60;99.90
36458;DHT22;22480;50.546;12.292;2024-01-25T07:10:42;5.70;99.90
36458;DHT22;22480;50.546;12.292;2024-01-25T07:13:08;5.70;99.90
36458;DHT22;22480;50.546;12.292;2024-01-25T07:15:33;5.60;99.90
36458;DHT22;22480;50.546;12.292;2024-01-25T07:17:59;5.60;99.90
36458;DHT22;22480;50.546;12.292;2024-01-25T07:20:25;5.70;99.90
36458;DHT22;22480;50.546;12.292;2024-01-25T07:22:50;5.70;99.90
36458;DHT22;22480;50.546;12.292;2024-01-25T07:25:16;5.60;99.90
36458;DHT22;22480;50.546;12.292;2024-01-25T07:27:46;5.50;99.90
36458;DHT22;22480;50.546;12.292;2024-01-25T07:30:13;5.70;99.90
36458;DHT22;22480;50.546;12.292;2024-01-25T07:32:39;5.70;99.90
36458;DHT22;22480;50.546;12.292;2024-01-25T07:35:08;5.60;99.90
36458;DHT22;22480;50.546;12.292;2024-01-25T07:37:35;5.70;99.90
36458;DHT22;22480;50.546;12.292;2024-01-25T07:40:01;5.70;99.90
36458;DHT22;22480;50.546;12.292;2024-01-25T07:42:29;5.70;99.90
36458;DHT22;22480;50.546;12.292;2024-01-25T07:44:54;5.70;99.90
36458;DHT22;22480;50.546;12.292;2024-01-25T07:47:20;5.60;99.90
36458;DHT22;22480;50.546;12.292;2024-01-25T07:49:46;5.70;99.90
36458;DHT22;22480;50.546;12.292;2024-01-25T07:52:11;5.60;99.90
36458;DHT22;22480;50.546;12.292;2024-01-25T07:54:37;5.60;99.90
36458;DHT22;22480;50.546;12.292;2024-01-25T07:57:03;5.60;99.90
36458;DHT22;22480;50.546;12.292;2024-01-25T07:59:29;5.70;99.90
36458;DHT22;22480;50.546;12.292;2024-01-25T08:01:54;5.60;99.90
36458;DHT22;22480;50.546;12.292;2024-01-25T08:04:20;5.70;99.90
36458;DHT22;22480;50.546;12.292;2024-01-25T08:06:46;5.70;99.90
36458;DHT22;22480;50.546;12.292;2024-01-25T08:09:11;5.70;99.90
36458;DHT22;22480;50.546;12.292;2024-01-25T08:11:37;5.70;99.90
36458;DHT22;22480;50.546;12.292;2024-01-25T08:14:03;5.70;99.90
36458;DHT22;22480;50.546;12.292;2024-01-25T08:16:29;5.70;99.90
36458;DHT22;22480;50.546;12.292;2024-01-25T08:18:55;5.80;99.90
36458;DHT22;22480;50.546;12.292;2024-01-25T08:21:21;5.80;99.90
36458;DHT22;22480;50.546;12.292;2024-01-25T08:23:47;5.70;99.90
36458;DHT22;22480;50.546;12.292;2024-01-25T08:26:13;5.80;99.90
36458;DHT22;22480;50.546;12.292;2024-01-25T08:28:39;5.90;99.90
36458;DHT22;22480;50.546;12.292;2024-01-25T08:31:05;5.80;99.90
36458;DHT22;22480;50.546;12.292;2024-01-25T08:33:31;5.80;99.90
36458;DHT22;22480;50.546;12.292;2024-01-25T08:35:57;5.80;99.90
36458;DHT22;22480;50.546;12.292;2024-01-25T08:38:23;5.90;99.90
36458;DHT22;22480;50.546;12.292;2024-01-25T08:40:48;5.90;99.90
36458;DHT22;22480;50.546;12.292;2024-01-25T08:43:14;5.90;99.90
36458;DHT22;22480;50.546;12.292;2024-01-25T08:45:40;5.90;99.90
36458;DHT22;22480;50.546;12.292;2024-01-25T08:48:06;5.90;99.90
36458;DHT22;22480;50.546;12.292;2024-01-25T08:50:31;5.90;99.90
36458;DHT22;22480;50.546;12.292;2024-01-25T08:52:58;6.00;99.90
36458;DHT22;22480;50.546;12.292;2024-01-25T08:55:25;6.10;99.90
36458;DHT22;22480;50.546;12.292;2024-01-25T08:57:51;6.00;99.90
36458;DHT22;22480;50.546;12.292;2024-01-25T09:00:16;6.10;99.90
36458;DHT22;22480;50.546;12.292;2024-01-25T09:02:43;6.10;99.90
36458;DHT22;22480;50.546;12.292;2024-01-25T09:05:09;6.10;99.90
36458;DHT22;22480;50.546;12.292;2024-01-25T09:07:35;6.20;99.90
36458;DHT22;22480;50.546;12.292;2024-01-25T09:10:01;6.20;99.90
36458;DHT22;22480;50.546;12.292;2024-01-25T09:12:26;6.30;99.90
36458;DHT22;22480;50.546;12.292;2024-01-25T09:14:52;6.30;99.90
36458;DHT22;22480;50.546;12.292;2024-01-25T09:17:18;6.20;99.90
36458;DHT22;22480;50.546;12.292;2024-01-25T09:19:48;6.30;99.90
36458;DHT22;22480;50.546;12.292;2024-01-25T09:22:15;6.30;99.90
36458;DHT22;22480;50.546;12.292;2024-01-25T09:24:43;6.30;99.90
36458;DHT22;22480;50.546;12.292;2024-01-25T09:27:09;6.30;99.90
36458;DHT22;22480;50.546;12.292;2024-01-25T09:29:35;6.30;99.90
36458;DHT22;22480;50.546;12.292;2024-01-25T09:32:01;6.40;99.90
36458;DHT22;22480;50.546;12.292;2024-01-25T09:34:27;6.30;99.90
36458;DHT22;22480;50.546;12.292;2024-01-25T09:36:53;6.30;99.90
36458;DHT22;22480;50.546;12.292;2024-01-25T09:39:18;6.30;99.90
36458;DHT22;22480;50.546;12.292;2024-01-25T09:41:45;6.30;99.90
36458;DHT22;22480;50.546;12.292;2024-01-25T09:44:11;6.20;99.90
36458;DHT22;22480;50.546;12.292;2024-01-25T09:46:38;6.20;99.90
36458;DHT22;22480;50.546;12.292;2024-01-25T09:49:06;6.20;99.90
36458;DHT22;22480;50.546;12.292;2024-01-25T09:51:37;6.20;99.90
36458;DHT22;22480;50.546;12.292;2024-01-25T09:54:06;6.10;99.90
36458;DHT22;22480;50.546;12.292;2024-01-25T09:56:33;6.10;99.90
36458;DHT22;22480;50.546;12.292;2024-01-25T09:58:59;6.10;99.90
36458;DHT22;22480;50.546;12.292;2024-01-25T10:01:26;6.10;99.90
36458;DHT22;22480;50.546;12.292;2024-01-25T10:03:52;6.20;99.90
36458;DHT22;22480;50.546;12.292;2024-01-25T10:06:18;6.20;99.90
36458;DHT22;22480;50.546;12.292;2024-01-25T10:08:45;6.20;99.90
36458;DHT22;22480;50.546;12.292;2024-01-25T10:11:11;6.30;99.90
36458;DHT22;22480;50.546;12.292;2024-01-25T10:13:41;6.40;99.90
36458;DHT22;22480;50.546;12.292;2024-01-25T10:16:10;6.40;99.90
36458;DHT22;22480;50.546;12.292;2024-01-25T10:18:36;6.40;99.90
36458;DHT22;22480;50.546;12.292;2024-01-25T10:21:03;6.70;99.90
36458;DHT22;22480;50.546;12.292;2024-01-25T10:23:28;6.80;99.90
36458;DHT22;22480;50.546;12.292;2024-01-25T10:25:56;6.90;99.90
36458;DHT22;22480;50.546;12.292;2024-01-25T10:28:24;6.80;99.90
36458;DHT22;22480;50.546;12.292;2024-01-25T10:30:50;6.70;99.90
36458;DHT22;22480;50.546;12.292;2024-01-25T10:33:17;6.80;99.90
36458;DHT22;22480;50.546;12.292;2024-01-25T10:35:45;6.70;99.90
36458;DHT22;22480;50.546;12.292;2024-01-25T10:38:17;6.70;99.90
36458;DHT22;22480;50.546;12.292;2024-01-25T10:40:43;6.70;99.90
36458;DHT22;22480;50.546;12.292;2024-01-25T10:43:11;6.60;99.90
36458;DHT22;22480;50.546;12.292;2024-01-25T10:45:37;6.60;99.90
36458;DHT22;22480;50.546;12.292;2024-01-25T10:48:03;6.60;99.90
36458;DHT22;22480;50.546;12.292;2024-01-25T10:50:29;6.60;99.90
36458;DHT22;22480;50.546;12.292;2024-01-25T10:52:55;6.60;99.90
36458;DHT22;22480;50.546;12.292;2024-01-25T10:55:21;6.50;99.90
36458;DHT22;22480;50.546;12.292;2024-01-25T10:57:47;6.60;99.90
36458;DHT22;22480;50.546;12.292;2024-01-25T11:00:15;6.60;99.90
36458;DHT22;22480;50.546;12.292;2024-01-25T11:02:41;6.90;99.90
36458;DHT22;22480;50.546;12.292;2024-01-25T11:05:12;7.00;99.90
36458;DHT22;22480;50.546;12.292;2024-01-25T11:07:49;7.10;99.90
36458;DHT22;22480;50.546;12.292;2024-01-25T11:10:25;7.10;99.90
36458;DHT22;22480;50.546;12.292;2024-01-25T11:12:59;7.30;99.90
36458;DHT22;22480;50.546;12.292;2024-01-25T11:15:35;7.50;99.90
36458;DHT22;22480;50.546;12.292;2024-01-25T11:18:03;7.90;99.90
36458;DHT22;22480;50.546;12.292;2024-01-25T11:20:30;7.80;99.90
36458;DHT22;22480;50.546;12.292;2024-01-25T11:23:03;8.10;99.90
36458;DHT22;22480;50.546;12.292;2024-01-25T11:25:35;8.10;99.90
36458;DHT22;22480;50.546;12.292;2024-01-25T11:28:03;8.50;99.90
36458;DHT22;22480;50.546;12.292;2024-01-25T11:30:31;8.90;97.70
36458;DHT22;22480;50.546;12.292;2024-01-25T11:32:57;8.60;98.50
36458;DHT22;22480;50.546;12.292;2024-01-25T11:35:23;8.60;97.40
36458;DHT22;22480;50.546;12.292;2024-01-25T11:37:49;8.40;99.90
36458;DHT22;22480;50.546;12.292;2024-01-25T11:40:17;8.30;99.60
36458;DHT22;22480;50.546;12.292;2024-01-25T11:42:47;8.20;99.90
36458;DHT22;22480;50.546;12.292;2024-01-25T11:45:14;8.70;97.00
36458;DHT22;22480;50.546;12.292;2024-01-25T11:47:41;9.00;95.60
36458;DHT22;22480;50.546;12.292;2024-01-25T11:50:08;9.00;95.60
36458;DHT22;22480;50.546;12.292;2024-01-25T11:52:35;9.10;93.90
36458;DHT22;22480;50.546;12.292;2024-01-25T11:55:06;8.50;96.50
36458;DHT22;22480;50.546;12.292;2024-01-25T11:57:37;8.00;99.70
36458;DHT22;22480;50.546;12.292;2024-01-25T12:00:04;7.60;99.90
36458;DHT22;22480;50.546;12.292;2024-01-25T12:02:33;7.40;99.90
36458;DHT22;22480;50.546;12.292;2024-01-25T12:04:59;7.40;99.90
36458;DHT22;22480;50.546;12.292;2024-01-25T12:07:30;7.80;99.90
36458;DHT22;22480;50.546;12.292;2024-01-25T12:10:04;7.80;98.40
36458;DHT22;22480;50.546;12.292;2024-01-25T12:12:30;7.80;99.90
36458;DHT22;22480;50.546;12.292;2024-01-25T12:14:59;7.60;99.90
36458;DHT22;22480;50.546;12.292;2024-01-25T12:17:29;7.50;99.90
36458;DHT22;22480;50.546;12.292;2024-01-25T12:19:56;7.70;99.90
36458;DHT22;22480;50.546;12.292;2024-01-25T12:22:22;8.20;96.90
36458;DHT22;22480;50.546;12.292;2024-01-25T12:24:48;8.30;96.90
36458;DHT22;22480;50.546;12.292;2024-01-25T12:27:17;8.30;95.40
36458;DHT22;22480;50.546;12.292;2024-01-25T12:29:43;8.30;96.10
36458;DHT22;22480;50.546;12.292;2024-01-25T12:32:09;8.40;96.00
36458;DHT22;22480;50.546;12.292;2024-01-25T12:34:35;8.40;96.70
36458;DHT22;22480;50.546;12.292;2024-01-25T12:37:03;8.70;95.70
36458;DHT22;22480;50.546;12.292;2024-01-25T12:39:29;8.90;93.40
36458;DHT22;22480;50.546;12.292;2024-01-25T12:41:54;8.80;92.60
36458;DHT22;22480;50.546;12.292;2024-01-25T12:44:20;9.10;93.20
36458;DHT22;22480;50.546;12.292;2024-01-25T12:46:46;9.20;91.70
36458;DHT22;22480;50.546;12.292;2024-01-25T12:49:11;8.90;92.20
36458;DHT22;22480;50.546;12.292;2024-01-25T12:51:37;8.80;92.30
36458;DHT22;22480;50.546;12.292;2024-01-25T12:54:03;8.80;92.70
36458;DHT22;22480;50.546;12.292;2024-01-25T12:56:29;8.60;93.80
36458;DHT22;22480;50.546;12.292;2024-01-25T12:58:55;8.70;94.60
36458;DHT22;22480;50.546;12.292;2024-01-25T13:01:20;8.70;93.80
36458;DHT22;22480;50.546;12.292;2024-01-25T13:03:46;8.70;93.50
36458;DHT22;22480;50.546;12.292;2024-01-25T13:06:14;8.20;95.40
36458;DHT22;22480;50.546;12.292;2024-01-25T13:08:39;8.00;98.90
36458;DHT22;22480;50.546;12.292;2024-01-25T13:11:05;7.80;99.90
36458;DHT22;22480;50.546;12.292;2024-01-25T13:13:31;7.50;99.90
36458;DHT22;22480;50.546;12.292;2024-01-25T13:15:56;7.20;99.90
36458;DHT22;22480;50.546;12.292;2024-01-25T13:18:22;7.00;99.90
36458;DHT22;22480;50.546;12.292;2024-01-25T13:20:48;6.90;99.90
36458;DHT22;22480;50.546;12.292;2024-01-25T13:23:13;6.90;99.90
36458;DHT22;22480;50.546;12.292;2024-01-25T13:25:40;7.00;99.90
36458;DHT22;22480;50.546;12.292;2024-01-25T13:28:06;6.90;99.90
36458;DHT22;22480;50.546;12.292;2024-01-25T13:30:32;6.90;99.90
36458;DHT22;22480;50.546;12.292;2024-01-25T13:32:57;6.90;99.90
36458;DHT22;22480;50.546;12.292;2024-01-25T13:35:23;6.90;99.90
36458;DHT22;22480;50.546;12.292;2024-01-25T13:37:49;6.80;99.90
36458;DHT22;22480;50.546;12.292;2024-01-25T13:40:15;6.80;99.90
36458;DHT22;22480;50.546;12.292;2024-01-25T13:42:40;6.80;99.90
36458;DHT22;22480;50.546;12.292;2024-01-25T13:45:06;6.70;99.90
36458;DHT22;22480;50.546;12.292;2024-01-25T13:47:32;6.70;99.90
36458;DHT22;22480;50.546;12.292;2024-01-25T13:49:58;6.60;99.90
36458;DHT22;22480;50.546;12.292;2024-01-25T13:52:24;6.60;99.90
36458;DHT22;22480;50.546;12.292;2024-01-25T13:54:50;6.60;99.90
36458;DHT22;22480;50.546;12.292;2024-01-25T13:57:16;6.60;99.90
36458;DHT22;22480;50.546;12.292;2024-01-25T13:59:42;6.70;99.90
36458;DHT22;22480;50.546;12.292;2024-01-25T14:02:08;6.70;99.90
36458;DHT22;22480;50.546;12.292;2024-01-25T14:04:34;6.60;99.90
36458;DHT22;22480;50.546;12.292;2024-01-25T14:06:59;6.60;99.90
36458;DHT22;22480;50.546;12.292;2024-01-25T14:09:28;6.50;99.90
36458;DHT22;22480;50.546;12.292;2024-01-25T14:11:55;6.50;99.90
36458;DHT22;22480;50.546;12.292;2024-01-25T14:14:20;6.60;99.90
36458;DHT22;22480;50.546;12.292;2024-01-25T14:16:46;6.50;99.90
36458;DHT22;22480;50.546;12.292;2024-01-25T14:19:12;6.60;99.90
36458;DHT22;22480;50.546;12.292;2024-01-25T14:21:37;6.60;99.90
36458;DHT22;22480;50.546;12.292;2024-01-25T14:24:03;6.60;99.90
36458;DHT22;22480;50.546;12.292;2024-01-25T14:26:29;6.50;99.90
36458;DHT22;22480;50.546;12.292;2024-01-25T14:28:54;6.50;99.90
36458;DHT22;22480;50.546;12.292;2024-01-25T14:31:20;6.40;99.90
36458;DHT22;22480;50.546;12.292;2024-01-25T14:33:46;6.40;99.90
36458;DHT22;22480;50.546;12.292;2024-01-25T14:36:11;6.50;99.90
36458;DHT22;22480;50.546;12.292;2024-01-25T14:38:39;6.60;99.90
36458;DHT22;22480;50.546;12.292;2024-01-25T14:41:11;6.60;99.90
36458;DHT22;22480;50.546;12.292;2024-01-25T14:43:40;6.40;99.90
36458;DHT22;22480;50.546;12.292;2024-01-25T14:46:06;6.30;99.90
36458;DHT22;22480;50.546;12.292;2024-01-25T14:48:32;6.20;99.90
36458;DHT22;22480;50.546;12.292;2024-01-25T14:50:58;6.10;99.90
36458;DHT22;22480;50.546;12.292;2024-01-25T14:53:24;6.00;99.90
36458;DHT22;22480;50.546;12.292;2024-01-25T14:55:50;5.90;99.90
36458;DHT22;22480;50.546;12.292;2024-01-25T14:58:18;5.80;99.90
36458;DHT22;22480;50.546;12.292;2024-01-25T15:00:51;5.80;99.90
36458;DHT22;22480;50.546;12.292;2024-01-25T15:03:18;5.80;99.90
36458;DHT22;22480;50.546;12.292;2024-01-25T15:05:43;5.80;99.90
36458;DHT22;22480;50.546;12.292;2024-01-25T15:08:09;5.90;99.90
36458;DHT22;22480;50.546;12.292;2024-01-25T15:10:35;5.90;99.90
36458;DHT22;22480;50.546;12.292;2024-01-25T15:13:01;5.90;99.90
36458;DHT22;22480;50.546;12.292;2024-01-25T15:15:26;5.90;99.90
36458;DHT22;22480;50.546;12.292;2024-01-25T15:17:57;5.70;99.90
36458;DHT22;22480;50.546;12.292;2024-01-25T15:20:22;5.60;99.90
36458;DHT22;22480;50.546;12.292;2024-01-25T15:22:49;5.60;99.90
36458;DHT22;22480;50.546;12.292;2024-01-25T15:25:15;5.50;99.90